sensor_id;sensor_type;location;lat;lon;timestamp;temperature;humidity
16879;DHT22;8556;52.218;9.884;2023-04-01T00:00:32;10.20;99.90
16879;DHT22;8556;52.218;9.884;2023-04-01T00:02:59;10.20;99.90
16879;DHT22;8556;52.218;9.884;2023-04-01T00:05:26;10.20;99.90
16879;DHT22;8556;52.218;9.884;2023-04-01T00:07:53;10.20;99.90
16879;DHT22;8556;52.218;9.884;2023-04-01T00:10:20;10.20;99.90
16879;DHT22;8556;52.218;9.884;2023-04-01T00:12:47;10.30;99.90
16879;DHT22;8556;52.218;9.884;2023-04-01T00:15:16;10.30;99.90
16879;DHT22;8556;52.218;9.884;2023-04-01T00:17:42;10.40;99.90
16879;DHT22;8556;52.218;9.884;2023-04-01T00:20:11;10.40;99.90
16879;DHT22;8556;52.218;9.884;2023-04-01T00:22:39;10.30;99.90
16879;DHT22;8556;52.218;9.884;2023-04-01T00:25:07;10.30;99.90
16879;DHT22;8556;52.218;9.884;2023-04-01T00:27:34;10.30;99.90
16879;DHT22;8556;52.218;9.884;2023-04-01T00:30:01;10.30;99.90
16879;DHT22;8556;52.218;9.884;2023-04-01T00:32:29;10.30;99.90
16879;DHT22;8556;52.218;9.884;2023-04-01T00:34:56;10.30;99.90
16879;DHT22;8556;52.218;9.884;2023-04-01T00:37:25;10.20;99.90
16879;DHT22;8556;52.218;9.884;2023-04-01T00:39:52;10.20;99.90
16879;DHT22;8556;52.218;9.884;2023-04-01T00:42:19;10.30;99.90
16879;DHT22;8556;52.218;9.884;2023-04-01T00:44:50;10.30;99.90
16879;DHT22;8556;52.218;9.884;2023-04-01T00:47:17;10.30;99.90
16879;DHT22;8556;52.218;9.884;2023-04-01T00:49:48;10.30;99.90
16879;DHT22;8556;52.218;9.884;2023-04-01T00:52:20;10.40;99.90
16879;DHT22;8556;52.218;9.884;2023-04-01T00:54:51;10.40;99.90
16879;DHT22;8556;52.218;9.884;2023-04-01T00:57:23;10.50;99.90
16879;DHT22;8556;52.218;9.884;2023-04-01T00:59:52;10.40;99.90
16879;DHT22;8556;52.218;9.884;2023-04-01T01:02:22;10.40;99.90
16879;DHT22;8556;52.218;9.884;2023-04-01T01:04:50;10.30;99.90
16879;DHT22;8556;52.218;9.884;2023-04-01T01:07:25;10.40;99.90
16879;DHT22;8556;52.218;9.884;2023-04-01T01:09:58;10.40;99.90
16879;DHT22;8556;52.218;9.884;2023-04-01T01:12:30;10.40;99.90
16879;DHT22;8556;52.218;9.884;2023-04-01T01:15:05;10.30;99.90
16879;DHT22;8556;52.218;9.884;2023-04-01T01:17:44;10.30;99.90
16879;DHT22;8556;52.218;9.884;2023-04-01T01:26:37;10.10;99.90
16879;DHT22;8556;52.218;9.884;2023-04-01T01:29:15;10.10;99.90
16879;DHT22;8556;52.218;9.884;2023-04-01T01:31:53;10.10;99.90
16879;DHT22;8556;52.218;9.884;2023-04-01T01:34:24;10.00;99.90
16879;DHT22;8556;52.218;9.884;2023-04-01T01:37:01;9.90;99.90
16879;DHT22;8556;52.218;9.884;2023-04-01T01:39:31;9.90;99.90
16879;DHT22;8556;52.218;9.884;2023-04-01T01:42:04;9.70;99.90
16879;DHT22;8556;52.218;9.884;2023-04-01T01:44:32;9.80;99.90
16879;DHT22;8556;52.218;9.884;2023-04-01T01:47:00;9.70;99.90
16879;DHT22;8556;52.218;9.884;2023-04-01T01:49:28;9.70;99.90
16879;DHT22;8556;52.218;9.884;2023-04-01T01:51:58;9.70;99.90
16879;DHT22;8556;52.218;9.884;2023-04-01T01:54:25;9.60;99.90
16879;DHT22;8556;52.218;9.884;2023-04-01T01:57:06;9.60;99.90
16879;DHT22;8556;52.218;9.884;2023-04-01T01:59:35;9.60;99.90
16879;DHT22;8556;52.218;9.884;2023-04-01T02:02:05;9.60;99.90
16879;DHT22;8556;52.218;9.884;2023-04-01T02:04:35;9.60;99.90
16879;DHT22;8556;52.218;9.884;2023-04-01T02:07:06;9.60;99.90
16879;DHT22;8556;52.218;9.884;2023-04-01T02:09:34;9.60;99.90
16879;DHT22;8556;52.218;9.884;2023-04-01T02:12:05;9.60;99.90
16879;DHT22;8556;52.218;9.884;2023-04-01T02:14:39;9.60;99.90
16879;DHT22;8556;52.218;9.884;2023-04-01T02:17:09;9.60;99.90
16879;DHT22;8556;52.218;9.884;2023-04-01T02:19:39;9.60;99.90
16879;DHT22;8556;52.218;9.884;2023-04-01T02:22:13;9.50;99.90
16879;DHT22;8556;52.218;9.884;2023-04-01T02:24:42;9.60;99.90
16879;DHT22;8556;52.218;9.884;2023-04-01T02:27:11;9.70;99.90
16879;DHT22;8556;52.218;9.884;2023-04-01T02:29:38;9.70;99.90
16879;DHT22;8556;52.218;9.884;2023-04-01T02:32:06;9.70;99.90
16879;DHT22;8556;52.218;9.884;2023-04-01T02:34:34;9.80;99.90
16879;DHT22;8556;52.218;9.884;2023-04-01T02:37:01;9.80;99.90
16879;DHT22;8556;52.218;9.884;2023-04-01T02:39:30;9.70;99.90
16879;DHT22;8556;52.218;9.884;2023-04-01T02:41:57;9.70;99.90
16879;DHT22;8556;52.218;9.884;2023-04-01T02:44:24;9.70;99.90
16879;DHT22;8556;52.218;9.884;2023-04-01T02:46:51;9.60;99.90
16879;DHT22;8556;52.218;9.884;2023-04-01T02:49:18;9.70;99.90
16879;DHT22;8556;52.218;9.884;2023-04-01T02:51:45;9.50;99.90
16879;DHT22;8556;52.218;9.884;2023-04-01T02:54:12;9.50;99.90
16879;DHT22;8556;52.218;9.884;2023-04-01T02:56:41;9.50;99.90
16879;DHT22;8556;52.218;9.884;2023-04-01T02:59:07;9.60;99.90
16879;DHT22;8556;52.218;9.884;2023-04-01T03:01:34;9.60;99.90
16879;DHT22;8556;52.218;9.884;2023-04-01T03:04:02;9.60;99.90
16879;DHT22;8556;52.218;9.884;2023-04-01T03:06:29;9.60;99.90
16879;DHT22;8556;52.218;9.884;2023-04-01T03:08:56;9.60;99.90
16879;DHT22;8556;52.218;9.884;2023-04-01T03:11:23;9.60;99.90
16879;DHT22;8556;52.218;9.884;2023-04-01T03:13:53;9.60;99.90
16879;DHT22;8556;52.218;9.884;2023-04-01T03:16:20;9.50;99.90
16879;DHT22;8556;52.218;9.884;2023-04-01T03:18:46;9.50;99.90
16879;DHT22;8556;52.218;9.884;2023-04-01T03:21:16;9.50;99.90
16879;DHT22;8556;52.218;9.884;2023-04-01T03:23:43;9.50;99.90
16879;DHT22;8556;52.218;9.884;2023-04-01T03:26:10;9.50;99.90
16879;DHT22;8556;52.218;9.884;2023-04-01T03:28:37;9.60;99.90
16879;DHT22;8556;52.218;9.884;2023-04-01T03:31:06;9.70;99.90
16879;DHT22;8556;52.218;9.884;2023-04-01T03:33:33;9.60;99.90
16879;DHT22;8556;52.218;9.884;2023-04-01T03:36:00;9.60;99.90
16879;DHT22;8556;52.218;9.884;2023-04-01T03:38:27;9.70;99.90
16879;DHT22;8556;52.218;9.884;2023-04-01T03:40:54;9.70;99.90
16879;DHT22;8556;52.218;9.884;2023-04-01T03:43:21;9.70;99.90
16879;DHT22;8556;52.218;9.884;2023-04-01T03:45:50;9.80;99.90
16879;DHT22;8556;52.218;9.884;2023-04-01T03:48:18;9.70;99.90
16879;DHT22;8556;52.218;9.884;2023-04-01T03:50:45;9.80;99.90
16879;DHT22;8556;52.218;9.884;2023-04-01T03:53:13;9.70;99.90
16879;DHT22;8556;52.218;9.884;2023-04-01T03:55:40;9.80;99.90
16879;DHT22;8556;52.218;9.884;2023-04-01T03:58:08;9.80;99.90
16879;DHT22;8556;52.218;9.884;2023-04-01T04:00:35;9.80;99.90
16879;DHT22;8556;52.218;9.884;2023-04-01T04:03:02;9.90;99.90
16879;DHT22;8556;52.218;9.884;2023-04-01T04:05:30;9.90;99.90
16879;DHT22;8556;52.218;9.884;2023-04-01T04:07:57;9.80;99.90
16879;DHT22;8556;52.218;9.884;2023-04-01T04:10:24;9.70;99.90
16879;DHT22;8556;52.218;9.884;2023-04-01T04:12:52;9.60;99.90
16879;DHT22;8556;52.218;9.884;2023-04-01T04:15:19;9.60;99.90
16879;DHT22;8556;52.218;9.884;2023-04-01T04:17:46;9.60;99.90
16879;DHT22;8556;52.218;9.884;2023-04-01T04:20:14;9.60;99.90
16879;DHT22;8556;52.218;9.884;2023-04-01T04:22:42;9.60;99.90
16879;DHT22;8556;52.218;9.884;2023-04-01T04:25:09;9.60;99.90
16879;DHT22;8556;52.218;9.884;2023-04-01T04:27:36;9.60;99.90
16879;DHT22;8556;52.218;9.884;2023-04-01T04:30:05;9.70;99.90
16879;DHT22;8556;52.218;9.884;2023-04-01T04:32:33;9.70;99.90
16879;DHT22;8556;52.218;9.884;2023-04-01T04:35:00;9.60;99.90
16879;DHT22;8556;52.218;9.884;2023-04-01T04:37:27;9.60;99.90
16879;DHT22;8556;52.218;9.884;2023-04-01T04:39:56;9.60;99.90
16879;DHT22;8556;52.218;9.884;2023-04-01T04:42:23;9.70;99.90
16879;DHT22;8556;52.218;9.884;2023-04-01T04:44:49;9.60;99.90
16879;DHT22;8556;52.218;9.884;2023-04-01T04:47:16;9.60;99.90
16879;DHT22;8556;52.218;9.884;2023-04-01T04:49:43;9.60;99.90
16879;DHT22;8556;52.218;9.884;2023-04-01T04:52:10;9.60;99.90
16879;DHT22;8556;52.218;9.884;2023-04-01T04:54:37;9.60;99.90
16879;DHT22;8556;52.218;9.884;2023-04-01T04:57:06;9.60;99.90
16879;DHT22;8556;52.218;9.884;2023-04-01T04:59:33;9.60;99.90
16879;DHT22;8556;52.218;9.884;2023-04-01T05:02:01;9.60;99.90
16879;DHT22;8556;52.218;9.884;2023-04-01T05:04:28;9.50;99.90
16879;DHT22;8556;52.218;9.884;2023-04-01T05:06:55;9.50;99.90
16879;DHT22;8556;52.218;9.884;2023-04-01T05:09:22;9.40;99.90
16879;DHT22;8556;52.218;9.884;2023-04-01T05:11:49;9.40;99.90
16879;DHT22;8556;52.218;9.884;2023-04-01T05:14:17;9.40;99.90
16879;DHT22;8556;52.218;9.884;2023-04-01T05:16:44;9.40;99.90
16879;DHT22;8556;52.218;9.884;2023-04-01T05:19:11;9.40;99.90
16879;DHT22;8556;52.218;9.884;2023-04-01T05:21:38;9.30;99.90
16879;DHT22;8556;52.218;9.884;2023-04-01T05:24:08;9.30;99.90
16879;DHT22;8556;52.218;9.884;2023-04-01T05:26:35;9.30;99.90
16879;DHT22;8556;52.218;9.884;2023-04-01T05:29:03;9.40;99.90
16879;DHT22;8556;52.218;9.884;2023-04-01T05:31:32;9.40;99.90
16879;DHT22;8556;52.218;9.884;2023-04-01T05:33:59;9.40;99.90
16879;DHT22;8556;52.218;9.884;2023-04-01T05:36:26;9.40;99.90
16879;DHT22;8556;52.218;9.884;2023-04-01T05:38:55;9.30;99.90
16879;DHT22;8556;52.218;9.884;2023-04-01T05:41:22;9.40;99.90
16879;DHT22;8556;52.218;9.884;2023-04-01T05:43:49;9.40;99.90
16879;DHT22;8556;52.218;9.884;2023-04-01T05:46:16;9.40;99.90
16879;DHT22;8556;52.218;9.884;2023-04-01T05:48:44;9.40;99.90
16879;DHT22;8556;52.218;9.884;2023-04-01T05:51:13;9.50;99.90
16879;DHT22;8556;52.218;9.884;2023-04-01T05:53:40;9.60;99.90
16879;DHT22;8556;52.218;9.884;2023-04-01T05:56:07;9.50;99.90
16879;DHT22;8556;52.218;9.884;2023-04-01T05:58:35;9.60;99.90
16879;DHT22;8556;52.218;9.884;2023-04-01T06:01:02;9.60;99.90
16879;DHT22;8556;52.218;9.884;2023-04-01T06:03:30;9.70;99.90
16879;DHT22;8556;52.218;9.884;2023-04-01T06:05:59;9.70;99.90
16879;DHT22;8556;52.218;9.884;2023-04-01T06:08:29;9.80;99.90
16879;DHT22;8556;52.218;9.884;2023-04-01T06:11:06;9.80;99.90
16879;DHT22;8556;52.218;9.884;2023-04-01T06:13:59;9.90;99.90
16879;DHT22;8556;52.218;9.884;2023-04-01T06:16:36;9.90;99.90
16879;DHT22;8556;52.218;9.884;2023-04-01T06:19:23;10.00;99.90
16879;DHT22;8556;52.218;9.884;2023-04-01T06:25:20;10.00;99.90
16879;DHT22;8556;52.218;9.884;2023-04-01T06:27:58;10.10;99.90
16879;DHT22;8556;52.218;9.884;2023-04-01T06:30:38;10.10;99.90
16879;DHT22;8556;52.218;9.884;2023-04-01T06:36:11;10.30;99.90
16879;DHT22;8556;52.218;9.884;2023-04-01T06:42:15;10.40;99.90
16879;DHT22;8556;52.218;9.884;2023-04-01T06:44:50;10.40;99.90
16879;DHT22;8556;52.218;9.884;2023-04-01T06:47:29;10.50;99.90
16879;DHT22;8556;52.218;9.884;2023-04-01T06:50:05;10.50;99.90
16879;DHT22;8556;52.218;9.884;2023-04-01T06:52:43;10.50;99.90
16879;DHT22;8556;52.218;9.884;2023-04-01T06:55:24;10.50;99.90
16879;DHT22;8556;52.218;9.884;2023-04-01T06:57:55;10.50;99.90
16879;DHT22;8556;52.218;9.884;2023-04-01T07:00:27;10.50;99.90
16879;DHT22;8556;52.218;9.884;2023-04-01T07:03:02;10.50;99.90
16879;DHT22;8556;52.218;9.884;2023-04-01T07:05:32;10.50;99.90
16879;DHT22;8556;52.218;9.884;2023-04-01T07:08:02;10.50;99.90
16879;DHT22;8556;52.218;9.884;2023-04-01T07:10:35;10.60;99.90
16879;DHT22;8556;52.218;9.884;2023-04-01T07:13:12;10.70;99.90
16879;DHT22;8556;52.218;9.884;2023-04-01T07:15:43;10.60;99.90
16879;DHT22;8556;52.218;9.884;2023-04-01T07:18:15;10.70;99.90
16879;DHT22;8556;52.218;9.884;2023-04-01T07:20:43;10.70;99.90
16879;DHT22;8556;52.218;9.884;2023-04-01T07:23:16;10.70;99.90
16879;DHT22;8556;52.218;9.884;2023-04-01T07:25:52;10.90;99.90
16879;DHT22;8556;52.218;9.884;2023-04-01T07:28:22;11.10;99.90
16879;DHT22;8556;52.218;9.884;2023-04-01T07:30:57;11.10;99.90
16879;DHT22;8556;52.218;9.884;2023-04-01T07:33:35;11.10;99.90
16879;DHT22;8556;52.218;9.884;2023-04-01T07:36:08;11.30;99.90
16879;DHT22;8556;52.218;9.884;2023-04-01T07:38:48;11.40;99.90
16879;DHT22;8556;52.218;9.884;2023-04-01T07:41:24;11.20;99.90
16879;DHT22;8556;52.218;9.884;2023-04-01T07:44:04;11.10;99.90
16879;DHT22;8556;52.218;9.884;2023-04-01T07:46:45;11.10;99.90
16879;DHT22;8556;52.218;9.884;2023-04-01T07:49:18;11.30;99.90
16879;DHT22;8556;52.218;9.884;2023-04-01T07:51:56;11.40;99.90
16879;DHT22;8556;52.218;9.884;2023-04-01T07:54:32;11.30;99.90
16879;DHT22;8556;52.218;9.884;2023-04-01T07:57:10;11.40;99.90
16879;DHT22;8556;52.218;9.884;2023-04-01T07:59:45;11.30;99.90
16879;DHT22;8556;52.218;9.884;2023-04-01T08:02:25;11.40;99.90
16879;DHT22;8556;52.218;9.884;2023-04-01T08:05:04;11.20;99.90
16879;DHT22;8556;52.218;9.884;2023-04-01T08:07:40;11.30;99.90
16879;DHT22;8556;52.218;9.884;2023-04-01T08:10:14;11.30;99.90
16879;DHT22;8556;52.218;9.884;2023-04-01T08:12:49;11.40;99.90
16879;DHT22;8556;52.218;9.884;2023-04-01T08:15:23;11.60;99.90
16879;DHT22;8556;52.218;9.884;2023-04-01T08:18:07;11.70;99.90
16879;DHT22;8556;52.218;9.884;2023-04-01T08:20:41;11.70;99.90
16879;DHT22;8556;52.218;9.884;2023-04-01T08:23:13;11.90;99.90
16879;DHT22;8556;52.218;9.884;2023-04-01T08:25:47;11.70;99.90
16879;DHT22;8556;52.218;9.884;2023-04-01T08:28:19;11.70;99.90
16879;DHT22;8556;52.218;9.884;2023-04-01T08:30:52;11.70;99.90
16879;DHT22;8556;52.218;9.884;2023-04-01T08:33:24;11.80;99.90
16879;DHT22;8556;52.218;9.884;2023-04-01T08:35:56;12.00;99.90
16879;DHT22;8556;52.218;9.884;2023-04-01T08:38:29;12.10;99.90
16879;DHT22;8556;52.218;9.884;2023-04-01T08:41:01;11.90;99.90
16879;DHT22;8556;52.218;9.884;2023-04-01T08:47:14;12.00;99.90
16879;DHT22;8556;52.218;9.884;2023-04-01T08:49:56;12.10;99.90
16879;DHT22;8556;52.218;9.884;2023-04-01T08:52:34;12.20;99.90
16879;DHT22;8556;52.218;9.884;2023-04-01T08:55:17;12.40;99.90
16879;DHT22;8556;52.218;9.884;2023-04-01T08:58:02;12.40;99.90
16879;DHT22;8556;52.218;9.884;2023-04-01T09:00:37;12.40;99.90
16879;DHT22;8556;52.218;9.884;2023-04-01T09:03:34;12.60;99.90
16879;DHT22;8556;52.218;9.884;2023-04-01T09:06:24;12.50;99.90
16879;DHT22;8556;52.218;9.884;2023-04-01T09:12:07;12.60;99.90
16879;DHT22;8556;52.218;9.884;2023-04-01T09:14:53;12.70;99.90
16879;DHT22;8556;52.218;9.884;2023-04-01T09:17:38;12.80;99.90
16879;DHT22;8556;52.218;9.884;2023-04-01T09:20:44;12.70;99.90
16879;DHT22;8556;52.218;9.884;2023-04-01T09:26:25;12.60;99.90
16879;DHT22;8556;52.218;9.884;2023-04-01T09:29:02;12.60;99.90
16879;DHT22;8556;52.218;9.884;2023-04-01T09:31:53;12.80;99.90
16879;DHT22;8556;52.218;9.884;2023-04-01T09:34:34;12.60;99.90
16879;DHT22;8556;52.218;9.884;2023-04-01T09:37:20;12.60;99.90
16879;DHT22;8556;52.218;9.884;2023-04-01T09:40:03;12.60;99.90
16879;DHT22;8556;52.218;9.884;2023-04-01T09:42:44;12.80;99.90
16879;DHT22;8556;52.218;9.884;2023-04-01T09:45:24;12.70;99.90
16879;DHT22;8556;52.218;9.884;2023-04-01T09:48:05;12.80;99.90
16879;DHT22;8556;52.218;9.884;2023-04-01T09:50:44;12.80;99.90
16879;DHT22;8556;52.218;9.884;2023-04-01T09:53:25;12.70;99.90
16879;DHT22;8556;52.218;9.884;2023-04-01T09:56:33;12.80;99.90
16879;DHT22;8556;52.218;9.884;2023-04-01T09:59:31;12.80;99.90
16879;DHT22;8556;52.218;9.884;2023-04-01T10:11:55;12.90;99.90
16879;DHT22;8556;52.218;9.884;2023-04-01T10:17:49;12.80;99.90
16879;DHT22;8556;52.218;9.884;2023-04-01T10:23:32;12.90;99.90
16879;DHT22;8556;52.218;9.884;2023-04-01T10:29:30;13.10;99.90
16879;DHT22;8556;52.218;9.884;2023-04-01T10:35:44;13.20;99.90
16879;DHT22;8556;52.218;9.884;2023-04-01T10:38:34;12.70;99.90
16879;DHT22;8556;52.218;9.884;2023-04-01T10:47:39;13.50;99.90
16879;DHT22;8556;52.218;9.884;2023-04-01T10:50:20;13.40;99.90
16879;DHT22;8556;52.218;9.884;2023-04-01T10:56:35;13.40;99.90
16879;DHT22;8556;52.218;9.884;2023-04-01T11:02:50;13.40;99.90
16879;DHT22;8556;52.218;9.884;2023-04-01T11:12:02;13.30;99.90
16879;DHT22;8556;52.218;9.884;2023-04-01T11:14:51;13.10;99.90
16879;DHT22;8556;52.218;9.884;2023-04-01T11:20:54;13.00;99.90
16879;DHT22;8556;52.218;9.884;2023-04-01T11:23:44;13.10;99.90
16879;DHT22;8556;52.218;9.884;2023-04-01T11:26:21;13.10;99.90
16879;DHT22;8556;52.218;9.884;2023-04-01T11:32:19;13.00;99.90
16879;DHT22;8556;52.218;9.884;2023-04-01T11:35:12;13.00;99.90
16879;DHT22;8556;52.218;9.884;2023-04-01T11:37:53;13.30;99.90
16879;DHT22;8556;52.218;9.884;2023-04-01T11:40:25;13.20;99.90
16879;DHT22;8556;52.218;9.884;2023-04-01T11:42:59;13.50;99.90
16879;DHT22;8556;52.218;9.884;2023-04-01T11:45:36;13.20;99.90
16879;DHT22;8556;52.218;9.884;2023-04-01T11:48:25;13.00;99.90
16879;DHT22;8556;52.218;9.884;2023-04-01T11:51:17;13.20;99.90
16879;DHT22;8556;52.218;9.884;2023-04-01T11:53:55;13.10;99.90
16879;DHT22;8556;52.218;9.884;2023-04-01T11:56:37;13.20;99.90
16879;DHT22;8556;52.218;9.884;2023-04-01T12:02:21;13.20;99.90
16879;DHT22;8556;52.218;9.884;2023-04-01T12:05:01;13.30;99.90
16879;DHT22;8556;52.218;9.884;2023-04-01T12:07:50;13.50;99.90
16879;DHT22;8556;52.218;9.884;2023-04-01T12:10:21;13.20;99.90
16879;DHT22;8556;52.218;9.884;2023-04-01T12:12:54;13.30;99.90
16879;DHT22;8556;52.218;9.884;2023-04-01T12:15:32;13.60;99.90
16879;DHT22;8556;52.218;9.884;2023-04-01T12:18:10;13.30;99.90
16879;DHT22;8556;52.218;9.884;2023-04-01T12:20:48;13.50;99.90
16879;DHT22;8556;52.218;9.884;2023-04-01T12:23:38;13.50;99.90
16879;DHT22;8556;52.218;9.884;2023-04-01T12:26:28;13.30;99.90
16879;DHT22;8556;52.218;9.884;2023-04-01T12:29:12;13.50;99.90
16879;DHT22;8556;52.218;9.884;2023-04-01T12:31:47;13.10;99.90
16879;DHT22;8556;52.218;9.884;2023-04-01T12:34:40;13.10;99.90
16879;DHT22;8556;52.218;9.884;2023-04-01T12:37:17;13.00;99.90
16879;DHT22;8556;52.218;9.884;2023-04-01T12:39:59;13.20;99.90
16879;DHT22;8556;52.218;9.884;2023-04-01T12:42:44;13.10;99.90
16879;DHT22;8556;52.218;9.884;2023-04-01T12:45:29;13.00;99.90
16879;DHT22;8556;52.218;9.884;2023-04-01T12:51:07;12.90;99.90
16879;DHT22;8556;52.218;9.884;2023-04-01T12:53:51;12.70;99.90
16879;DHT22;8556;52.218;9.884;2023-04-01T12:56:29;12.70;99.90
16879;DHT22;8556;52.218;9.884;2023-04-01T12:59:21;13.00;99.90
16879;DHT22;8556;52.218;9.884;2023-04-01T13:02:01;12.80;99.90
16879;DHT22;8556;52.218;9.884;2023-04-01T13:07:53;12.50;99.90
16879;DHT22;8556;52.218;9.884;2023-04-01T13:10:36;12.60;99.90
16879;DHT22;8556;52.218;9.884;2023-04-01T13:16:14;12.80;99.90
16879;DHT22;8556;52.218;9.884;2023-04-01T13:18:54;12.70;99.90
16879;DHT22;8556;52.218;9.884;2023-04-01T13:21:33;12.80;99.90
16879;DHT22;8556;52.218;9.884;2023-04-01T13:24:09;12.90;99.90
16879;DHT22;8556;52.218;9.884;2023-04-01T13:26:52;13.00;99.90
16879;DHT22;8556;52.218;9.884;2023-04-01T13:29:24;12.80;99.90
16879;DHT22;8556;52.218;9.884;2023-04-01T13:32:05;13.00;99.90
16879;DHT22;8556;52.218;9.884;2023-04-01T13:34:43;12.70;99.90
16879;DHT22;8556;52.218;9.884;2023-04-01T13:37:25;12.60;99.90
16879;DHT22;8556;52.218;9.884;2023-04-01T13:40:02;12.40;99.90
16879;DHT22;8556;52.218;9.884;2023-04-01T13:42:45;12.20;99.90
16879;DHT22;8556;52.218;9.884;2023-04-01T13:45:18;12.20;99.90
16879;DHT22;8556;52.218;9.884;2023-04-01T13:48:03;12.00;99.90
16879;DHT22;8556;52.218;9.884;2023-04-01T13:57:27;11.70;99.90
16879;DHT22;8556;52.218;9.884;2023-04-01T14:00:31;11.70;99.90
16879;DHT22;8556;52.218;9.884;2023-04-01T14:03:28;11.60;99.90
16879;DHT22;8556;52.218;9.884;2023-04-01T14:06:06;11.70;99.90
16879;DHT22;8556;52.218;9.884;2023-04-01T14:08:47;11.60;99.90
16879;DHT22;8556;52.218;9.884;2023-04-01T14:11:22;11.50;99.90
16879;DHT22;8556;52.218;9.884;2023-04-01T14:14:01;11.60;99.90
16879;DHT22;8556;52.218;9.884;2023-04-01T14:17:05;11.50;99.90
16879;DHT22;8556;52.218;9.884;2023-04-01T14:19:56;11.60;99.90
16879;DHT22;8556;52.218;9.884;2023-04-01T14:22:31;11.50;99.90
16879;DHT22;8556;52.218;9.884;2023-04-01T14:25:29;11.50;99.90
16879;DHT22;8556;52.218;9.884;2023-04-01T14:28:07;11.40;99.90
16879;DHT22;8556;52.218;9.884;2023-04-01T14:30:51;11.40;99.90
16879;DHT22;8556;52.218;9.884;2023-04-01T14:33:34;11.30;99.90
16879;DHT22;8556;52.218;9.884;2023-04-01T14:36:29;11.30;99.90
16879;DHT22;8556;52.218;9.884;2023-04-01T14:41:48;11.20;99.90
16879;DHT22;8556;52.218;9.884;2023-04-01T14:47:23;10.90;99.90
16879;DHT22;8556;52.218;9.884;2023-04-01T14:50:04;10.70;99.90
16879;DHT22;8556;52.218;9.884;2023-04-01T14:52:35;10.40;99.90
16879;DHT22;8556;52.218;9.884;2023-04-01T14:55:18;10.30;99.90
16879;DHT22;8556;52.218;9.884;2023-04-01T14:57:58;10.20;99.90
16879;DHT22;8556;52.218;9.884;2023-04-01T15:00:26;10.10;99.90
16879;DHT22;8556;52.218;9.884;2023-04-01T15:02:57;10.00;99.90
16879;DHT22;8556;52.218;9.884;2023-04-01T15:05:43;9.80;99.90
16879;DHT22;8556;52.218;9.884;2023-04-01T15:08:20;9.60;99.90
16879;DHT22;8556;52.218;9.884;2023-04-01T15:11:05;9.60;99.90
16879;DHT22;8556;52.218;9.884;2023-04-01T15:14:04;9.30;99.90
16879;DHT22;8556;52.218;9.884;2023-04-01T15:16:39;9.20;99.90
16879;DHT22;8556;52.218;9.884;2023-04-01T15:19:16;9.20;99.90
16879;DHT22;8556;52.218;9.884;2023-04-01T15:22:09;9.20;99.90
16879;DHT22;8556;52.218;9.884;2023-04-01T15:24:46;9.00;99.90
16879;DHT22;8556;52.218;9.884;2023-04-01T15:27:32;8.90;99.90
16879;DHT22;8556;52.218;9.884;2023-04-01T15:30:18;8.90;99.90
16879;DHT22;8556;52.218;9.884;2023-04-01T15:33:00;8.80;99.90
16879;DHT22;8556;52.218;9.884;2023-04-01T15:35:40;8.80;99.90
16879;DHT22;8556;52.218;9.884;2023-04-01T15:38:19;8.70;99.90
16879;DHT22;8556;52.218;9.884;2023-04-01T15:40:55;8.80;99.90
16879;DHT22;8556;52.218;9.884;2023-04-01T15:43:36;8.80;99.90
16879;DHT22;8556;52.218;9.884;2023-04-01T15:46:26;8.80;99.90
16879;DHT22;8556;52.218;9.884;2023-04-01T15:49:15;8.80;99.90
16879;DHT22;8556;52.218;9.884;2023-04-01T15:52:09;8.80;99.90
16879;DHT22;8556;52.218;9.884;2023-04-01T15:55:14;8.60;99.90
16879;DHT22;8556;52.218;9.884;2023-04-01T15:57:52;8.40;99.90
16879;DHT22;8556;52.218;9.884;2023-04-01T16:00:28;8.30;99.90
16879;DHT22;8556;52.218;9.884;2023-04-01T16:03:15;8.30;99.90
16879;DHT22;8556;52.218;9.884;2023-04-01T16:06:09;8.30;99.90
16879;DHT22;8556;52.218;9.884;2023-04-01T16:08:52;8.30;99.90
16879;DHT22;8556;52.218;9.884;2023-04-01T16:11:31;8.40;99.90
16879;DHT22;8556;52.218;9.884;2023-04-01T16:14:12;8.30;99.90
16879;DHT22;8556;52.218;9.884;2023-04-01T16:16:54;8.20;99.90
16879;DHT22;8556;52.218;9.884;2023-04-01T16:19:33;8.20;99.90
16879;DHT22;8556;52.218;9.884;2023-04-01T16:22:08;8.10;99.90
16879;DHT22;8556;52.218;9.884;2023-04-01T16:24:40;8.00;99.90
16879;DHT22;8556;52.218;9.884;2023-04-01T16:27:14;8.10;99.90
16879;DHT22;8556;52.218;9.884;2023-04-01T16:29:47;8.00;99.90
16879;DHT22;8556;52.218;9.884;2023-04-01T16:32:28;7.90;99.90
16879;DHT22;8556;52.218;9.884;2023-04-01T16:35:04;7.90;99.90
16879;DHT22;8556;52.218;9.884;2023-04-01T16:37:42;7.90;99.90
16879;DHT22;8556;52.218;9.884;2023-04-01T16:40:16;7.80;99.90
16879;DHT22;8556;52.218;9.884;2023-04-01T16:42:53;7.80;99.90
16879;DHT22;8556;52.218;9.884;2023-04-01T16:45:30;7.60;99.90
16879;DHT22;8556;52.218;9.884;2023-04-01T16:48:07;7.60;99.90
16879;DHT22;8556;52.218;9.884;2023-04-01T16:50:48;7.60;99.90
16879;DHT22;8556;52.218;9.884;2023-04-01T16:53:21;7.50;99.90
16879;DHT22;8556;52.218;9.884;2023-04-01T16:55:55;7.50;99.90
16879;DHT22;8556;52.218;9.884;2023-04-01T16:58:34;7.50;99.90
16879;DHT22;8556;52.218;9.884;2023-04-01T17:01:05;7.50;99.90
16879;DHT22;8556;52.218;9.884;2023-04-01T17:03:38;7.50;99.90
16879;DHT22;8556;52.218;9.884;2023-04-01T17:06:23;7.50;99.90
16879;DHT22;8556;52.218;9.884;2023-04-01T17:09:11;7.40;99.90
16879;DHT22;8556;52.218;9.884;2023-04-01T17:11:49;7.50;99.90
16879;DHT22;8556;52.218;9.884;2023-04-01T17:14:26;7.40;99.90
16879;DHT22;8556;52.218;9.884;2023-04-01T17:17:08;7.40;99.90
16879;DHT22;8556;52.218;9.884;2023-04-01T17:19:55;7.30;99.90
16879;DHT22;8556;52.218;9.884;2023-04-01T17:22:31;7.20;99.90
16879;DHT22;8556;52.218;9.884;2023-04-01T17:25:24;7.10;99.90
16879;DHT22;8556;52.218;9.884;2023-04-01T17:27:56;7.00;99.90
16879;DHT22;8556;52.218;9.884;2023-04-01T17:30:31;7.00;99.90
16879;DHT22;8556;52.218;9.884;2023-04-01T17:33:17;7.00;99.90
16879;DHT22;8556;52.218;9.884;2023-04-01T17:35:56;6.90;99.90
16879;DHT22;8556;52.218;9.884;2023-04-01T17:38:41;7.00;99.90
16879;DHT22;8556;52.218;9.884;2023-04-01T17:41:24;6.90;99.90
16879;DHT22;8556;52.218;9.884;2023-04-01T17:43:58;7.00;99.90
16879;DHT22;8556;52.218;9.884;2023-04-01T17:46:38;6.90;99.90
16879;DHT22;8556;52.218;9.884;2023-04-01T17:49:21;6.90;99.90
16879;DHT22;8556;52.218;9.884;2023-04-01T17:51:55;6.70;99.90
16879;DHT22;8556;52.218;9.884;2023-04-01T17:54:31;6.70;99.90
16879;DHT22;8556;52.218;9.884;2023-04-01T17:57:28;6.60;99.90
16879;DHT22;8556;52.218;9.884;2023-04-01T18:00:03;6.30;99.90
16879;DHT22;8556;52.218;9.884;2023-04-01T18:02:40;6.30;99.90
16879;DHT22;8556;52.218;9.884;2023-04-01T18:05:38;6.30;99.90
16879;DHT22;8556;52.218;9.884;2023-04-01T18:08:15;6.30;99.90
16879;DHT22;8556;52.218;9.884;2023-04-01T18:10:57;6.20;99.90
16879;DHT22;8556;52.218;9.884;2023-04-01T18:16:30;6.20;99.90
16879;DHT22;8556;52.218;9.884;2023-04-01T18:19:09;6.20;99.90
16879;DHT22;8556;52.218;9.884;2023-04-01T18:21:45;6.20;99.90
16879;DHT22;8556;52.218;9.884;2023-04-01T18:24:26;6.10;99.90
16879;DHT22;8556;52.218;9.884;2023-04-01T18:27:02;6.00;99.90
16879;DHT22;8556;52.218;9.884;2023-04-01T18:29:40;6.10;99.90
16879;DHT22;8556;52.218;9.884;2023-04-01T18:32:15;6.10;99.90